Time;durP1;ratioP1;P1;durP2;ratioP2;P2;SDS_P1;SDS_P2;PMS_P1;PMS_P2;Temp;Humidity;BMP_temperature;BMP_pressure;BME280_temperature;BME280_humidity;BME280_pressure;Samples;Min_cycle;Max_cycle;Signal;HPM_P1;HPM_P2
2022/08/14 00:00:20;;;;;;;6.00;3.88;;;;;;;;;;5055758;28;20025;-45
2022/08/14 00:02:46;;;;;;;4.45;3.85;;;;;;;;;;5055437;28;20021;-45
2022/08/14 00:05:15;;;;;;;4.68;4.05;;;;;;;;;;5054608;28;20079;-44
2022/08/14 00:07:41;;;;;;;4.47;4.05;;;;;;;;;;5037036;28;20564;-44
2022/08/14 00:10:09;;;;;;;6.78;4.22;;;;;;;;;;5055597;28;20100;-44
2022/08/14 00:12:37;;;;;;;4.82;4.20;;;;;;;;;;5055524;28;20083;-44
2022/08/14 00:15:17;;;;;;;8.23;4.30;;;;;;;;;;5055721;28;20017;-44
2022/08/14 00:17:43;;;;;;;6.18;4.18;;;;;;;;;;5055454;28;20025;-46
2022/08/14 00:20:09;;;;;;;4.93;4.05;;;;;;;;;;5055364;28;20033;-44
2022/08/14 00:22:35;;;;;;;7.03;4.20;;;;;;;;;;5055662;28;20055;-45
2022/08/14 00:25:00;;;;;;;7.43;4.05;;;;;;;;;;5037422;28;20057;-52
2022/08/14 00:27:26;;;;;;;6.55;4.15;;;;;;;;;;5055251;28;20033;-54
2022/08/14 00:29:51;;;;;;;5.07;4.15;;;;;;;;;;5055225;28;20021;-46
2022/08/14 00:32:17;;;;;;;4.93;4.03;;;;;;;;;;5055147;28;20028;-44
2022/08/14 00:34:42;;;;;;;5.90;4.30;;;;;;;;;;5054827;28;20056;-49
2022/08/14 00:37:08;;;;;;;7.95;3.78;;;;;;;;;;5055101;28;20040;-48
2022/08/14 00:39:33;;;;;;;7.28;4.10;;;;;;;;;;5054812;28;20503;-48
2022/08/14 00:41:59;;;;;;;8.95;4.13;;;;;;;;;;5053977;28;20021;-49
2022/08/14 00:44:24;;;;;;;6.95;4.22;;;;;;;;;;5055178;28;20381;-44
2022/08/14 00:46:50;;;;;;;4.43;4.00;;;;;;;;;;5054870;28;20107;-55
2022/08/14 00:49:16;;;;;;;4.78;4.25;;;;;;;;;;5055014;28;20032;-44
2022/08/14 00:51:43;;;;;;;7.90;4.25;;;;;;;;;;5054777;28;20029;-46
2022/08/14 00:54:09;;;;;;;5.78;4.63;;;;;;;;;;5054607;28;20031;-45
2022/08/14 00:56:35;;;;;;;5.63;4.30;;;;;;;;;;5054746;28;20071;-49
2022/08/14 00:59:01;;;;;;;7.72;4.10;;;;;;;;;;5054500;28;20469;-46
2022/08/14 01:01:28;;;;;;;7.70;4.32;;;;;;;;;;5054806;28;20025;-47
2022/08/14 01:03:56;;;;;;;8.88;4.50;;;;;;;;;;5054437;28;20029;-48
2022/08/14 01:06:22;;;;;;;4.97;4.35;;;;;;;;;;5054802;28;20635;-49
2022/08/14 01:08:49;;;;;;;7.95;4.35;;;;;;;;;;5054701;28;20029;-50
2022/08/14 01:11:14;;;;;;;11.60;4.38;;;;;;;;;;5054436;28;20032;-51
2022/08/14 01:13:45;;;;;;;7.00;4.38;;;;;;;;;;5054632;28;20025;-48
2022/08/14 01:16:12;;;;;;;;;;;;;;;;;;5054849;28;20572;-50
2022/08/14 01:21:33;;;;;;;9.70;4.38;;;;;;;;;;5054656;28;20086;-50
2022/08/14 01:23:59;;;;;;;6.38;4.45;;;;;;;;;;5054414;28;20120;-49
2022/08/14 01:26:27;;;;;;;4.70;4.25;;;;;;;;;;5054447;28;20516;-48
2022/08/14 01:28:54;;;;;;;7.40;4.57;;;;;;;;;;5054322;28;20032;-46
2022/08/14 01:31:23;;;;;;;8.27;4.63;;;;;;;;;;5036261;28;20373;-49
2022/08/14 01:33:51;;;;;;;5.10;4.60;;;;;;;;;;5053859;28;20228;-51
2022/08/14 01:36:22;;;;;;;4.93;4.43;;;;;;;;;;5053933;28;20036;-47
2022/08/14 01:38:49;;;;;;;4.70;4.10;;;;;;;;;;5054134;28;20025;-49
2022/08/14 01:41:19;;;;;;;5.18;4.43;;;;;;;;;;5053887;28;20483;-44
2022/08/14 01:43:52;;;;;;;4.85;4.15;;;;;;;;;;5053787;28;20108;-49
2022/08/14 01:46:21;;;;;;;5.85;4.50;;;;;;;;;;5053865;28;20048;-44
2022/08/14 01:48:47;;;;;;;6.35;4.38;;;;;;;;;;5054003;28;20057;-44
2022/08/14 01:51:16;;;;;;;6.47;4.38;;;;;;;;;;5053775;28;20017;-46
2022/08/14 01:53:45;;;;;;;9.18;4.20;;;;;;;;;;5053792;28;20025;-51
2022/08/14 01:56:10;;;;;;;8.38;4.40;;;;;;;;;;5053811;28;20116;-45
2022/08/14 01:58:36;;;;;;;5.70;4.72;;;;;;;;;;5053477;28;20166;-44
2022/08/14 02:01:03;;;;;;;10.90;4.68;;;;;;;;;;5053453;28;20021;-50
2022/08/14 02:03:34;;;;;;;5.57;4.43;;;;;;;;;;5053807;28;20029;-49
2022/08/14 02:06:02;;;;;;;8.55;5.00;;;;;;;;;;5053477;28;20028;-45
2022/08/14 02:08:31;;;;;;;11.95;4.72;;;;;;;;;;5053383;28;20503;-44
2022/08/14 02:13:45;;;;;;;5.15;4.50;;;;;;;;;;5053637;28;20128;-47
2022/08/14 02:16:12;;;;;;;8.18;4.68;;;;;;;;;;5053248;28;20071;-48
2022/08/14 02:18:38;;;;;;;8.98;5.38;;;;;;;;;;5053123;28;20032;-45
2022/08/14 02:21:04;;;;;;;12.20;5.60;;;;;;;;;;5053321;28;20411;-51
2022/08/14 02:23:31;;;;;;;10.68;5.65;;;;;;;;;;5053049;28;20100;-45
2022/08/14 02:25:58;;;;;;;9.50;5.18;;;;;;;;;;5052914;28;20028;-45
2022/08/14 02:28:25;;;;;;;12.65;5.28;;;;;;;;;;5053004;28;20024;-45
2022/08/14 02:30:51;;;;;;;12.65;5.70;;;;;;;;;;5052865;28;20037;-46
2022/08/14 02:33:17;;;;;;;12.88;5.75;;;;;;;;;;5052576;28;20120;-51
2022/08/14 02:35:43;;;;;;;18.00;5.82;;;;;;;;;;5053131;28;20036;-45
2022/08/14 02:38:08;;;;;;;15.40;6.38;;;;;;;;;;5052797;28;20372;-44
2022/08/14 02:40:35;;;;;;;16.20;5.90;;;;;;;;;;5052908;28;20078;-44
2022/08/14 02:43:01;;;;;;;12.85;6.07;;;;;;;;;;5053000;28;20392;-46
2022/08/14 02:45:31;;;;;;;15.10;5.60;;;;;;;;;;5052640;28;20025;-44
2022/08/14 02:47:57;;;;;;;17.95;5.93;;;;;;;;;;5052698;28;20489;-43
2022/08/14 02:50:23;;;;;;;16.42;6.18;;;;;;;;;;5052860;28;20045;-50
2022/08/14 02:52:48;;;;;;;21.48;6.50;;;;;;;;;;5052816;28;20029;-43
2022/08/14 02:55:14;;;;;;;32.25;6.63;;;;;;;;;;5052720;28;20029;-44
2022/08/14 02:57:41;;;;;;;13.30;6.18;;;;;;;;;;5052534;28;20548;-52
2022/08/14 03:00:12;;;;;;;12.95;6.13;;;;;;;;;;5052594;28;20037;-55
2022/08/14 03:02:37;;;;;;;12.77;5.78;;;;;;;;;;5035582;28;20413;-52
2022/08/14 03:05:04;;;;;;;25.27;6.32;;;;;;;;;;5051590;28;20036;-50
2022/08/14 03:07:29;;;;;;;17.83;6.18;;;;;;;;;;5052634;28;20025;-50
2022/08/14 03:09:55;;;;;;;20.90;5.90;;;;;;;;;;5052330;28;20481;-44
2022/08/14 03:12:21;;;;;;;9.38;5.90;;;;;;;;;;5052583;28;20048;-48
2022/08/14 03:14:51;;;;;;;7.90;5.50;;;;;;;;;;5052193;28;20039;-47
2022/08/14 03:17:16;;;;;;;6.35;5.60;;;;;;;;;;5052554;28;20020;-50
2022/08/14 03:19:42;;;;;;;10.32;5.65;;;;;;;;;;5052375;28;20029;-46
2022/08/14 03:22:08;;;;;;;6.32;5.32;;;;;;;;;;5052153;28;20108;-49
2022/08/14 03:24:35;;;;;;;8.02;6.15;;;;;;;;;;5052402;28;20017;-46
2022/08/14 03:27:02;;;;;;;6.45;5.80;;;;;;;;;;5052104;28;20469;-49
2022/08/14 03:29:27;;;;;;;7.47;6.28;;;;;;;;;;5052046;28;20029;-48
2022/08/14 03:31:54;;;;;;;7.07;5.68;;;;;;;;;;5052404;28;20032;-44
2022/08/14 03:34:23;;;;;;;6.32;5.72;;;;;;;;;;5051678;28;20392;-45
2022/08/14 03:36:54;;;;;;;8.98;5.95;;;;;;;;;;5052269;28;20102;-45
2022/08/14 03:39:21;;;;;;;7.22;6.00;;;;;;;;;;5051926;28;20447;-44
2022/08/14 03:41:47;;;;;;;7.43;6.13;;;;;;;;;;5052046;28;20078;-48
2022/08/14 03:44:13;;;;;;;8.15;5.85;;;;;;;;;;5051947;28;20021;-44
2022/08/14 03:46:41;;;;;;;6.82;5.63;;;;;;;;;;5051940;28;20542;-44
2022/08/14 03:49:08;;;;;;;12.48;5.60;;;;;;;;;;5051853;28;20017;-46
2022/08/14 03:51:34;;;;;;;13.65;6.03;;;;;;;;;;5051942;28;20025;-47
2022/08/14 03:54:02;;;;;;;6.28;5.65;;;;;;;;;;5052143;28;20093;-44
2022/08/14 03:56:28;;;;;;;8.32;5.82;;;;;;;;;;5051826;28;20112;-48
2022/08/14 03:58:57;;;;;;;6.47;5.72;;;;;;;;;;5052073;28;20377;-46
2022/08/14 04:01:24;;;;;;;6.22;5.63;;;;;;;;;;5051852;28;20492;-52
2022/08/14 04:03:51;;;;;;;8.45;5.97;;;;;;;;;;5051775;28;20496;-49
2022/08/14 04:06:19;;;;;;;8.45;5.68;;;;;;;;;;5051700;28;20033;-45
2022/08/14 04:08:45;;;;;;;6.32;5.55;;;;;;;;;;5051735;28;20104;-47
2022/08/14 04:11:12;;;;;;;8.43;6.35;;;;;;;;;;5051816;28;20021;-45
2022/08/14 04:13:41;;;;;;;9.27;6.07;;;;;;;;;;5052019;28;20021;-45
2022/08/14 04:16:13;;;;;;;8.68;5.88;;;;;;;;;;5054634;28;20036;-45
2022/08/14 04:18:45;;;;;;;6.70;6.00;;;;;;;;;;5055380;28;20032;-46
2022/08/14 04:21:12;;;;;;;8.00;5.57;;;;;;;;;;5055329;28;20104;-45
2022/08/14 04:23:38;;;;;;;8.32;6.45;;;;;;;;;;5055397;28;20025;-48
2022/08/14 04:26:07;;;;;;;11.57;6.43;;;;;;;;;;5055484;28;20029;-45
2022/08/14 04:28:35;;;;;;;7.90;6.57;;;;;;;;;;5055264;28;20113;-48
2022/08/14 04:31:02;;;;;;;12.15;6.40;;;;;;;;;;5055435;28;20124;-46
2022/08/14 04:33:28;;;;;;;9.18;7.05;;;;;;;;;;5055049;28;20045;-45
2022/08/14 04:35:54;;;;;;;12.35;6.63;;;;;;;;;;5037199;28;20025;-45
2022/08/14 04:43:50;;;;;;;9.48;6.18;;;;;;;;;;5055344;28;20071;-53
2022/08/14 04:46:20;;;;;;;9.95;6.13;;;;;;;;;;5055178;28;20037;-49
2022/08/14 04:48:47;;;;;;;10.85;6.45;;;;;;;;;;5054957;28;20033;-47
2022/08/14 04:51:16;;;;;;;8.90;6.32;;;;;;;;;;5055074;28;20033;-51
2022/08/14 04:53:46;;;;;;;10.35;6.28;;;;;;;;;;5054988;28;20020;-47
2022/08/14 04:56:15;;;;;;;6.93;6.10;;;;;;;;;;5054948;28;20070;-45
2022/08/14 04:58:46;;;;;;;9.88;6.40;;;;;;;;;;5054812;28;20356;-54
2022/08/14 05:01:13;;;;;;;7.07;6.30;;;;;;;;;;5054600;28;20396;-51
2022/08/14 05:03:40;;;;;;;11.15;6.55;;;;;;;;;;5054545;28;20094;-45
2022/08/14 05:06:09;;;;;;;8.40;6.05;;;;;;;;;;5054512;28;20492;-45
2022/08/14 05:08:35;;;;;;;13.23;6.43;;;;;;;;;;5054467;28;20032;-47
2022/08/14 05:11:05;;;;;;;8.93;6.32;;;;;;;;;;5054313;28;20032;-48
2022/08/14 05:13:32;;;;;;;7.03;6.22;;;;;;;;;;5054657;28;20028;-47
2022/08/14 05:15:59;;;;;;;9.02;6.60;;;;;;;;;;5054247;28;20025;-45
2022/08/14 05:18:28;;;;;;;13.82;6.75;;;;;;;;;;5054543;28;20056;-50
2022/08/14 05:20:55;;;;;;;10.07;6.20;;;;;;;;;;5054171;28;20060;-50
2022/08/14 05:23:22;;;;;;;13.25;6.60;;;;;;;;;;5054174;28;20029;-49
2022/08/14 05:25:52;;;;;;;10.00;6.05;;;;;;;;;;5054161;28;20159;-46
2022/08/14 05:28:21;;;;;;;9.53;6.67;;;;;;;;;;5053374;28;20036;-52
2022/08/14 05:30:57;;;;;;;10.68;6.60;;;;;;;;;;5054305;28;20119;-48
2022/08/14 05:33:24;;;;;;;16.13;7.25;;;;;;;;;;5053800;28;20025;-54
2022/08/14 05:35:51;;;;;;;11.60;6.15;;;;;;;;;;5054348;28;20032;-48
2022/08/14 05:38:21;;;;;;;10.45;6.40;;;;;;;;;;5054296;28;20016;-48
2022/08/14 05:40:48;;;;;;;13.13;6.55;;;;;;;;;;5053786;28;20037;-44
2022/08/14 05:43:14;;;;;;;9.80;6.30;;;;;;;;;;5053857;28;20033;-44
2022/08/14 05:45:41;;;;;;;10.15;6.90;;;;;;;;;;5054068;28;20074;-51
2022/08/14 05:48:08;;;;;;;10.40;6.10;;;;;;;;;;5053718;28;20025;-47
2022/08/14 05:50:33;;;;;;;9.95;6.35;;;;;;;;;;5054032;28;20029;-50
2022/08/14 05:53:00;;;;;;;8.32;5.50;;;;;;;;;;5053851;28;20048;-45
2022/08/14 05:55:26;;;;;;;8.38;6.00;;;;;;;;;;5053789;28;20036;-44
2022/08/14 05:58:04;;;;;;;8.50;5.93;;;;;;;;;;5053681;28;20021;-49
2022/08/14 06:00:38;;;;;;;6.47;5.82;;;;;;;;;;5053663;28;20029;-47
2022/08/14 06:03:07;;;;;;;9.18;5.78;;;;;;;;;;5053810;28;20108;-45
2022/08/14 06:05:33;;;;;;;10.07;5.10;;;;;;;;;;5053421;28;20043;-55
2022/08/14 06:08:00;;;;;;;7.88;5.60;;;;;;;;;;5053625;28;20033;-58
2022/08/14 06:10:29;;;;;;;7.35;5.38;;;;;;;;;;5053601;28;20033;-59
2022/08/14 06:12:56;;;;;;;12.25;6.45;;;;;;;;;;5053895;28;20056;-60
2022/08/14 06:15:25;;;;;;;12.27;6.13;;;;;;;;;;5053424;28;20029;-60
2022/08/14 06:17:53;;;;;;;9.90;5.95;;;;;;;;;;5053497;28;20031;-60
2022/08/14 06:20:19;;;;;;;12.35;6.40;;;;;;;;;;5053223;28;20029;-45
2022/08/14 06:22:45;;;;;;;8.10;5.63;;;;;;;;;;5053441;28;20029;-44
2022/08/14 06:25:12;;;;;;;9.40;6.10;;;;;;;;;;5053409;28;20025;-45
2022/08/14 06:27:41;;;;;;;11.93;5.75;;;;;;;;;;5052939;28;20032;-46
2022/08/14 06:30:10;;;;;;;11.98;5.93;;;;;;;;;;5035433;28;20034;-44
2022/08/14 06:32:36;;;;;;;7.53;5.90;;;;;;;;;;5052804;28;20469;-47
2022/08/14 06:35:07;;;;;;;6.57;5.78;;;;;;;;;;5052648;28;20041;-49
2022/08/14 06:37:52;;;;;;;7.10;5.90;;;;;;;;;;5052869;28;20052;-50
2022/08/14 06:40:24;;;;;;;8.35;6.38;;;;;;;;;;5052712;28;20025;-47
2022/08/14 06:42:49;;;;;;;9.45;6.35;;;;;;;;;;5052980;28;20048;-45
2022/08/14 06:45:16;;;;;;;8.20;6.20;;;;;;;;;;5053001;28;20024;-46
2022/08/14 06:47:43;;;;;;;9.80;6.10;;;;;;;;;;5052514;28;20039;-52
2022/08/14 06:50:11;;;;;;;11.88;6.00;;;;;;;;;;5052890;28;20102;-44
2022/08/14 06:52:38;;;;;;;8.90;6.60;;;;;;;;;;5051365;28;20120;-46
2022/08/14 06:55:06;;;;;;;10.55;6.70;;;;;;;;;;5050955;28;20454;-55
2022/08/14 06:57:40;;;;;;;7.25;5.95;;;;;;;;;;5052450;28;20374;-45
2022/08/14 07:00:11;;;;;;;9.23;6.53;;;;;;;;;;5052175;28;20037;-45
2022/08/14 07:08:13;;;;;;;7.38;6.47;;;;;;;;;;5052399;28;20031;-48
2022/08/14 07:10:41;;;;;;;11.68;6.70;;;;;;;;;;5050507;28;20031;-48
2022/08/14 07:13:06;;;;;;;8.57;6.72;;;;;;;;;;5050856;28;20025;-46
2022/08/14 07:15:32;;;;;;;7.93;6.65;;;;;;;;;;5049110;28;20040;-55
2022/08/14 07:17:58;;;;;;;13.18;6.93;;;;;;;;;;5050142;28;20021;-49
2022/08/14 07:20:26;;;;;;;11.68;6.85;;;;;;;;;;5051045;28;20108;-48
2022/08/14 07:22:56;;;;;;;14.10;6.88;;;;;;;;;;5031244;28;20025;-45
2022/08/14 07:25:21;;;;;;;12.52;6.80;;;;;;;;;;5051848;28;20048;-44
2022/08/14 07:27:47;;;;;;;10.32;6.30;;;;;;;;;;5051838;28;20064;-45
2022/08/14 07:30:12;;;;;;;8.30;6.78;;;;;;;;;;5052060;28;20392;-47
2022/08/14 07:32:38;;;;;;;6.72;5.88;;;;;;;;;;5052051;28;20029;-44
2022/08/14 07:35:04;;;;;;;8.35;6.60;;;;;;;;;;5051595;28;20045;-44
2022/08/14 07:37:29;;;;;;;7.72;6.68;;;;;;;;;;5051839;28;20044;-44
2022/08/14 07:39:55;;;;;;;11.55;6.57;;;;;;;;;;5052204;28;20033;-44
2022/08/14 07:42:21;;;;;;;11.57;6.07;;;;;;;;;;5052328;28;20423;-42
2022/08/14 07:44:46;;;;;;;15.75;6.65;;;;;;;;;;5052009;28;20038;-44
2022/08/14 07:47:12;;;;;;;7.28;6.10;;;;;;;;;;5051600;28;20054;-42
2022/08/14 07:49:38;;;;;;;11.57;6.22;;;;;;;;;;5052583;28;20025;-47
2022/08/14 07:52:04;;;;;;;13.23;6.18;;;;;;;;;;5055894;28;20039;-43
2022/08/14 07:54:30;;;;;;;9.02;6.35;;;;;;;;;;5056026;28;20028;-46
2022/08/14 07:56:59;;;;;;;11.18;6.28;;;;;;;;;;5056487;28;20031;-43
2022/08/14 07:59:25;;;;;;;7.82;5.78;;;;;;;;;;5055749;28;20468;-42
2022/08/14 08:01:52;;;;;;;9.35;5.97;;;;;;;;;;5055861;28;20033;-45
2022/08/14 08:04:25;;;;;;;9.73;6.80;;;;;;;;;;5055114;28;20031;-44
2022/08/14 08:06:51;;;;;;;7.30;5.20;;;;;;;;;;5055688;28;20031;-45
2022/08/14 08:09:19;;;;;;;8.32;6.18;;;;;;;;;;5055890;28;20388;-45
2022/08/14 08:11:45;;;;;;;7.47;5.57;;;;;;;;;;5055887;28;20381;-44
2022/08/14 08:14:11;;;;;;;7.07;6.13;;;;;;;;;;5055512;28;20028;-46
2022/08/14 08:16:37;;;;;;;7.78;6.20;;;;;;;;;;5055443;28;20020;-43
2022/08/14 08:19:04;;;;;;;9.60;6.82;;;;;;;;;;5055603;28;20025;-48
2022/08/14 08:21:30;;;;;;;8.73;6.03;;;;;;;;;;5055449;28;20384;-46
2022/08/14 08:23:55;;;;;;;7.85;6.05;;;;;;;;;;5055412;28;20025;-43
2022/08/14 08:26:28;;;;;;;7.05;5.82;;;;;;;;;;5055588;28;20032;-43
2022/08/14 08:28:57;;;;;;;11.73;6.65;;;;;;;;;;5055356;28;20392;-45
2022/08/14 08:31:24;;;;;;;14.18;6.55;;;;;;;;;;5055201;28;20017;-44
2022/08/14 08:33:51;;;;;;;9.13;6.43;;;;;;;;;;5055002;28;20083;-43
2022/08/14 08:36:18;;;;;;;8.65;5.95;;;;;;;;;;5055207;28;20135;-49
2022/08/14 08:38:44;;;;;;;9.90;6.10;;;;;;;;;;5055402;28;20029;-48
2022/08/14 08:41:11;;;;;;;10.05;6.28;;;;;;;;;;5055067;28;20029;-48
2022/08/14 08:43:40;;;;;;;11.27;6.90;;;;;;;;;;5054888;28;20033;-51
2022/08/14 08:46:08;;;;;;;9.38;6.50;;;;;;;;;;5054935;28;20029;-49
2022/08/14 08:48:45;;;;;;;9.52;6.70;;;;;;;;;;5054876;28;20028;-47
2022/08/14 08:51:26;;;;;;;7.95;6.30;;;;;;;;;;5054828;28;20059;-43
2022/08/14 08:54:01;;;;;;;8.30;6.38;;;;;;;;;;5055054;28;20461;-43
2022/08/14 08:56:36;;;;;;;8.05;6.43;;;;;;;;;;5054760;28;20087;-43
2022/08/14 08:59:02;;;;;;;7.05;6.00;;;;;;;;;;5054903;28;20110;-46
2022/08/14 09:01:32;;;;;;;8.82;5.95;;;;;;;;;;5053684;28;20508;-44
2022/08/14 09:04:04;;;;;;;7.03;5.97;;;;;;;;;;5054822;28;20025;-46
2022/08/14 09:06:45;;;;;;;9.65;5.55;;;;;;;;;;5054405;28;20463;-49
2022/08/14 09:09:21;;;;;;;7.00;5.85;;;;;;;;;;5054788;28;20037;-51
2022/08/14 09:11:47;;;;;;;8.45;5.57;;;;;;;;;;5054380;28;20031;-49
2022/08/14 09:14:13;;;;;;;6.97;6.28;;;;;;;;;;5054656;28;20094;-49
2022/08/14 09:16:39;;;;;;;8.45;7.07;;;;;;;;;;5054661;28;20065;-43
2022/08/14 09:19:05;;;;;;;7.80;6.07;;;;;;;;;;5054232;28;20040;-43
2022/08/14 09:21:33;;;;;;;11.70;6.25;;;;;;;;;;5054123;28;20040;-46
2022/08/14 09:23:59;;;;;;;9.32;6.80;;;;;;;;;;5054272;28;20031;-47
2022/08/14 09:26:25;;;;;;;6.82;5.78;;;;;;;;;;5054139;28;20542;-47
2022/08/14 09:28:51;;;;;;;10.85;6.22;;;;;;;;;;5054194;28;20017;-44
2022/08/14 09:31:18;;;;;;;12.35;6.82;;;;;;;;;;5054399;28;20040;-46
2022/08/14 09:34:00;;;;;;;10.25;6.88;;;;;;;;;;5053992;28;20392;-46
2022/08/14 09:36:50;;;;;;;9.10;6.03;;;;;;;;;;5054274;28;20033;-43
2022/08/14 09:39:37;;;;;;;11.15;6.38;;;;;;;;;;5054206;28;20025;-43
2022/08/14 09:42:03;;;;;;;9.60;6.07;;;;;;;;;;5053953;28;20503;-42
2022/08/14 09:44:51;;;;;;;11.40;6.55;;;;;;;;;;5053403;28;20045;-43
2022/08/14 09:47:17;;;;;;;10.50;6.07;;;;;;;;;;5054090;28;20033;-42
2022/08/14 09:49:43;;;;;;;7.90;5.60;;;;;;;;;;5054266;28;20029;-43
2022/08/14 09:52:13;;;;;;;7.85;5.70;;;;;;;;;;5054051;28;20017;-45
2022/08/14 09:54:44;;;;;;;6.28;5.68;;;;;;;;;;5053653;28;20060;-43
2022/08/14 09:57:12;;;;;;;6.82;5.75;;;;;;;;;;5053579;28;20036;-43
2022/08/14 09:59:48;;;;;;;7.37;5.63;;;;;;;;;;5053458;28;20032;-43
2022/08/14 10:02:30;;;;;;;8.18;5.30;;;;;;;;;;5053586;28;20491;-43
2022/08/14 10:05:03;;;;;;;5.88;5.28;;;;;;;;;;5053685;28;20108;-43
2022/08/14 10:07:37;;;;;;;6.25;5.22;;;;;;;;;;5053674;28;20111;-47
2022/08/14 10:10:04;;;;;;;6.60;5.00;;;;;;;;;;5036158;28;20380;-45
2022/08/14 10:12:47;;;;;;;7.15;5.55;;;;;;;;;;5053029;28;20477;-43
2022/08/14 10:15:23;;;;;;;6.15;5.55;;;;;;;;;;5053564;28;20039;-47
2022/08/14 10:18:01;;;;;;;8.18;5.22;;;;;;;;;;5053293;28;20143;-47
2022/08/14 10:20:40;;;;;;;5.75;4.47;;;;;;;;;;5035190;28;20120;-44
2022/08/14 10:23:09;;;;;;;;;;;;;;;;;;5053503;28;20033;-43
2022/08/14 10:25:42;;;;;;;5.85;4.95;;;;;;;;;;5053068;28;20364;-46
2022/08/14 10:28:08;;;;;;;5.40;4.90;;;;;;;;;;5052975;28;20033;-44
2022/08/14 10:30:36;;;;;;;11.10;4.93;;;;;;;;;;5035129;28;20531;-51
2022/08/14 10:33:02;;;;;;;7.72;5.20;;;;;;;;;;5053161;28;20052;-43
2022/08/14 10:35:40;;;;;;;7.00;4.65;;;;;;;;;;5035027;28;20107;-48
2022/08/14 10:38:06;;;;;;;4.95;4.28;;;;;;;;;;5053102;28;20438;-43
2022/08/14 10:40:31;;;;;;;7.70;4.63;;;;;;;;;;5052711;28;20060;-46
2022/08/14 10:42:57;;;;;;;4.97;4.47;;;;;;;;;;5052690;28;20071;-41
2022/08/14 10:45:33;;;;;;;7.30;4.90;;;;;;;;;;5053080;28;20063;-46
2022/08/14 10:48:03;;;;;;;7.53;4.80;;;;;;;;;;5052740;28;20074;-43
2022/08/14 10:50:34;;;;;;;12.43;4.47;;;;;;;;;;5052611;28;20023;-43
2022/08/14 10:53:04;;;;;;;5.25;4.75;;;;;;;;;;5052552;28;20032;-51
2022/08/14 10:55:38;;;;;;;5.00;4.53;;;;;;;;;;5052637;28;20029;-49
2022/08/14 10:58:10;;;;;;;7.30;4.43;;;;;;;;;;5052579;28;20357;-53
2022/08/14 11:00:38;;;;;;;6.18;4.55;;;;;;;;;;5052419;28;20526;-48
2022/08/14 11:03:08;;;;;;;5.57;4.40;;;;;;;;;;5052451;28;20029;-54
2022/08/14 11:05:46;;;;;;;6.22;4.60;;;;;;;;;;5052737;28;20078;-49
2022/08/14 11:08:15;;;;;;;4.78;4.30;;;;;;;;;;5052350;28;20028;-50
2022/08/14 11:10:52;;;;;;;4.28;3.88;;;;;;;;;;5052336;28;20362;-51
2022/08/14 11:13:26;;;;;;;5.70;3.97;;;;;;;;;;5052559;28;20064;-52
2022/08/14 11:15:55;;;;;;;6.80;4.32;;;;;;;;;;5052565;28;20024;-53
2022/08/14 11:18:21;;;;;;;6.45;4.70;;;;;;;;;;5052529;28;20025;-53
2022/08/14 11:20:49;;;;;;;12.38;4.93;;;;;;;;;;5052173;28;20043;-54
2022/08/14 11:23:18;;;;;;;5.32;4.50;;;;;;;;;;5034349;28;20025;-44
2022/08/14 11:25:45;;;;;;;8.23;5.20;;;;;;;;;;5051848;28;20115;-43
2022/08/14 11:28:18;;;;;;;7.88;4.90;;;;;;;;;;5052431;28;20029;-47
2022/08/14 11:30:47;;;;;;;7.13;4.53;;;;;;;;;;5052518;28;20466;-46
2022/08/14 11:33:13;;;;;;;;;;;;;;;;;;5052699;28;20036;-44
2022/08/14 11:35:41;;;;;;;7.20;5.22;;;;;;;;;;5052170;28;19916;-43
2022/08/14 11:38:06;;;;;;;5.00;3.42;;;;;;;;;;5052660;28;20044;-43
2022/08/14 11:40:35;;;;;;;12.18;3.97;;;;;;;;;;5052188;28;20098;-43
2022/08/14 11:43:04;;;;;;;4.43;4.00;;;;;;;;;;5051975;28;20029;-45
2022/08/14 11:45:34;;;;;;;5.80;3.90;;;;;;;;;;5052013;28;20532;-42
2022/08/14 11:48:18;;;;;;;7.75;3.92;;;;;;;;;;5052027;28;20484;-43
2022/08/14 11:50:45;;;;;;;3.90;3.50;;;;;;;;;;5051992;28;20052;-42
2022/08/14 11:53:31;;;;;;;4.03;3.60;;;;;;;;;;5052017;28;20469;-42
2022/08/14 11:56:03;;;;;;;4.97;3.97;;;;;;;;;;5052175;28;20017;-43
2022/08/14 11:58:30;;;;;;;4.35;3.78;;;;;;;;;;5051869;28;20025;-43
2022/08/14 12:00:59;;;;;;;4.82;3.97;;;;;;;;;;5051711;28;20496;-42
2022/08/14 12:03:57;;;;;;;5.95;4.20;;;;;;;;;;5052141;28;20037;-43
2022/08/14 12:06:24;;;;;;;6.72;3.70;;;;;;;;;;5036521;28;20063;-43
2022/08/14 12:08:52;;;;;;;10.13;3.60;;;;;;;;;;5052093;28;20431;-47
2022/08/14 12:11:18;;;;;;;4.82;3.58;;;;;;;;;;5051773;28;20031;-48
2022/08/14 12:13:45;;;;;;;6.13;3.75;;;;;;;;;;5051790;28;20029;-43
2022/08/14 12:16:20;;;;;;;5.00;3.70;;;;;;;;;;5051617;28;20518;-43
2022/08/14 12:18:47;;;;;;;4.15;3.55;;;;;;;;;;5052056;28;20033;-49
2022/08/14 12:21:24;;;;;;;6.65;4.05;;;;;;;;;;5051523;28;20029;-42
2022/08/14 12:24:07;;;;;;;6.30;4.25;;;;;;;;;;5051913;28;20059;-43
2022/08/14 12:26:33;;;;;;;4.30;3.70;;;;;;;;;;5051981;28;20438;-44
2022/08/14 12:29:15;;;;;;;5.38;4.70;;;;;;;;;;5051568;28;20025;-42
2022/08/14 12:31:41;;;;;;;4.07;3.10;;;;;;;;;;5051526;28;20481;-42
2022/08/14 12:34:10;;;;;;;4.50;4.00;;;;;;;;;;5051287;28;20132;-42
2022/08/14 12:36:36;;;;;;;6.13;5.05;;;;;;;;;;5053629;28;20021;-43
2022/08/14 12:39:18;;;;;;;5.15;4.65;;;;;;;;;;5055078;28;20376;-43
2022/08/14 12:42:00;;;;;;;7.25;3.35;;;;;;;;;;5055403;28;20032;-43
2022/08/14 12:44:47;;;;;;;7.57;4.53;;;;;;;;;;5055280;28;20032;-43
2022/08/14 12:47:19;;;;;;;7.75;4.53;;;;;;;;;;5055040;28;20024;-43
2022/08/14 12:49:53;;;;;;;3.58;2.70;;;;;;;;;;5055297;28;20029;-43
2022/08/14 12:52:39;;;;;;;5.90;4.15;;;;;;;;;;5053932;28;20037;-44
2022/08/14 12:55:09;;;;;;;5.13;4.10;;;;;;;;;;5054760;28;20429;-42
2022/08/14 12:57:44;;;;;;;5.53;4.30;;;;;;;;;;5037428;28;20048;-43
2022/08/14 13:00:16;;;;;;;4.78;4.07;;;;;;;;;;5054905;28;20067;-43
2022/08/14 13:02:42;;;;;;;8.40;4.53;;;;;;;;;;5054613;28;20032;-43
2022/08/14 13:05:11;;;;;;;6.13;4.05;;;;;;;;;;5054921;28;20025;-44
2022/08/14 13:07:39;;;;;;;4.97;4.03;;;;;;;;;;5054437;28;20032;-43
2022/08/14 13:10:14;;;;;;;5.00;4.10;;;;;;;;;;5054852;28;20017;-44
2022/08/14 13:12:44;;;;;;;4.07;3.67;;;;;;;;;;5054532;28;20021;-45
2022/08/14 13:15:11;;;;;;;5.10;3.53;;;;;;;;;;5054480;28;20054;-42
2022/08/14 13:17:46;;;;;;;5.65;3.00;;;;;;;;;;5054653;28;20025;-43
2022/08/14 13:20:19;;;;;;;4.82;3.75;;;;;;;;;;5054256;28;20036;-45
2022/08/14 13:22:45;;;;;;;4.78;4.10;;;;;;;;;;5054346;28;20100;-43
2022/08/14 13:25:20;;;;;;;4.80;3.90;;;;;;;;;;5054587;28;20567;-42
2022/08/14 13:27:48;;;;;;;4.22;3.75;;;;;;;;;;5054247;28;20112;-43
2022/08/14 13:30:17;;;;;;;3.25;2.95;;;;;;;;;;5054568;28;20611;-44
2022/08/14 13:32:43;;;;;;;4.03;3.63;;;;;;;;;;5054117;28;20032;-46
2022/08/14 13:35:15;;;;;;;4.45;3.70;;;;;;;;;;5053854;28;20049;-42
2022/08/14 13:37:43;;;;;;;6.45;3.70;;;;;;;;;;5053958;28;20056;-43
2022/08/14 13:40:10;;;;;;;5.10;3.50;;;;;;;;;;5054179;28;20025;-43
2022/08/14 13:42:41;;;;;;;4.30;3.58;;;;;;;;;;5053905;28;20056;-43
2022/08/14 13:45:08;;;;;;;4.88;3.67;;;;;;;;;;5054280;28;20119;-43
2022/08/14 13:47:34;;;;;;;5.88;3.90;;;;;;;;;;5053181;28;20472;-43
2022/08/14 13:50:03;;;;;;;6.88;4.32;;;;;;;;;;5054060;28;20373;-43
2022/08/14 13:52:37;;;;;;;4.78;4.07;;;;;;;;;;5053696;28;20057;-43
2022/08/14 13:55:04;;;;;;;4.32;3.92;;;;;;;;;;5053674;28;20025;-44
2022/08/14 13:57:34;;;;;;;4.95;4.10;;;;;;;;;;5053653;28;20459;-44
2022/08/14 14:00:09;;;;;;;7.43;4.05;;;;;;;;;;5053852;28;20041;-44
2022/08/14 14:02:41;;;;;;;4.70;4.13;;;;;;;;;;5053593;28;20536;-43
2022/08/14 14:05:08;;;;;;;4.07;3.60;;;;;;;;;;5053609;28;20112;-42
2022/08/14 14:07:35;;;;;;;4.38;3.97;;;;;;;;;;5053791;28;20095;-46
2022/08/14 14:10:06;;;;;;;6.75;3.88;;;;;;;;;;5053750;28;20377;-45
2022/08/14 14:12:36;;;;;;;4.40;3.92;;;;;;;;;;5053358;28;20483;-46
2022/08/14 14:15:03;;;;;;;;;;;;;;;;;;5053754;28;20603;-42
2022/08/14 14:17:30;;;;;;;4.05;3.72;;;;;;;;;;5053341;28;20383;-44
2022/08/14 14:19:56;;;;;;;7.82;4.00;;;;;;;;;;5053436;28;20144;-43
2022/08/14 14:22:26;;;;;;;5.28;3.80;;;;;;;;;;5053507;28;20029;-45
2022/08/14 14:24:52;;;;;;;7.00;3.65;;;;;;;;;;5053468;28;20365;-44
2022/08/14 14:27:19;;;;;;;4.03;3.63;;;;;;;;;;5053425;28;20033;-44
2022/08/14 14:29:48;;;;;;;3.75;3.45;;;;;;;;;;5053543;28;20025;-45
2022/08/14 14:32:16;;;;;;;4.60;3.72;;;;;;;;;;5053037;28;20568;-42
2022/08/14 14:34:42;;;;;;;4.03;3.70;;;;;;;;;;5035006;28;20048;-44
2022/08/14 14:37:12;;;;;;;6.15;3.92;;;;;;;;;;5052970;28;20456;-45
2022/08/14 14:39:37;;;;;;;4.25;3.42;;;;;;;;;;5053129;28;20416;-50
2022/08/14 14:42:04;;;;;;;6.40;3.78;;;;;;;;;;5035039;28;20025;-49
2022/08/14 14:44:39;;;;;;;6.32;3.58;;;;;;;;;;5053021;28;20428;-44
2022/08/14 14:47:09;;;;;;;3.83;3.45;;;;;;;;;;5053137;28;20029;-50
2022/08/14 14:49:38;;;;;;;4.20;3.80;;;;;;;;;;5052952;28;20079;-49
2022/08/14 14:52:07;;;;;;;6.55;4.07;;;;;;;;;;5052693;28;20031;-51
2022/08/14 14:54:34;;;;;;;3.80;3.38;;;;;;;;;;5052956;28;20111;-44
2022/08/14 14:57:03;;;;;;;4.00;3.60;;;;;;;;;;5052884;28;20082;-44
2022/08/14 14:59:31;;;;;;;6.30;3.80;;;;;;;;;;5051814;28;20082;-43
2022/08/14 15:02:05;;;;;;;3.97;3.65;;;;;;;;;;5052578;28;20056;-44
2022/08/14 15:04:36;;;;;;;3.67;3.13;;;;;;;;;;5052397;28;20079;-45
2022/08/14 15:07:03;;;;;;;5.32;3.63;;;;;;;;;;5052533;28;20108;-43